aviador You're here:

CYQB Decoded Metar

QUEBEC in QC, CANADA
Report Time2017-05-22 19:00:00
UTC Time2017-05-22 19:20:58
Flight Rules vfr VFR
Wind150° at 05 kt
W.Decomp.*RWY 12: 3.4 kt HW 3.7 kt RCW
RWY 24: 1.5 kt HW 4.8 kt LCW
W.Rank150° ranks 36
Current wind is above 150° avg. (4.0)
Visibility9999 m
Phenomena:N/A
Clouds:Overcast 036 Hf
Expected CloudBase > 2,400 ft AGL from Temp-Dew spread
Ceiling3,600 ft
Temp14°C (ISA -1)
Dew Point08°C (67% RH)
AAT11.7°C
QNH1015 hPa
Density Alt256 ft
Elevation240 ft
Report Wrong Elevation
Raw Report
CYQB 221900Z 15005KT 30SM OVC036 14/08 A2997 RMK SC8 PRESFR
SLP151=

Extra information for CYQB:More info

Metar Taf Metar & Taf Last 4 Metars F.Rules Stats Wind Profile Meteogram Temp Stats Airport Information Weather charts Add Link Nearby VenuesMetar ALERT Operation Metar Decoded Social comments

navcanada